createdAt,value
2023-05-10T00:02:03.454Z,1.15
2023-05-10T00:07:07.855Z,0.70
2023-05-10T00:12:12.062Z,1.08
2023-05-10T00:17:17.665Z,0.73
2023-05-10T00:22:22.112Z,0.80
2023-05-10T00:27:26.119Z,0.70
2023-05-10T00:32:31.963Z,1.23
2023-05-10T00:37:36.887Z,1.40
2023-05-10T00:42:41.806Z,1.00
2023-05-10T00:47:47.857Z,1.10
2023-05-10T00:52:52.622Z,1.17
2023-05-10T00:57:56.884Z,1.33
2023-05-10T01:03:02.854Z,0.95
2023-05-10T01:08:07.584Z,0.63
2023-05-10T01:13:21.327Z,1.15
2023-05-10T01:18:28.733Z,1.20
2023-05-10T01:23:47.985Z,1.20
2023-05-10T01:29:27.358Z,0.70
2023-05-10T01:34:37.858Z,0.82
2023-05-10T01:39:48.618Z,0.90
2023-05-10T01:45:00.801Z,1.30
2023-05-10T01:50:12.412Z,1.05
2023-05-10T01:55:18.963Z,1.77
2023-05-10T02:00:23.272Z,1.75
2023-05-10T02:05:32.637Z,1.92
2023-05-10T02:10:39.883Z,2.08
2023-05-10T02:15:49.292Z,1.87
2023-05-10T02:20:57.274Z,1.92
2023-05-10T02:26:03.970Z,1.83
2023-05-10T02:31:09.972Z,1.73
2023-05-10T02:36:19.334Z,1.90
2023-05-10T02:41:27.460Z,2.50
2023-05-10T02:46:32.629Z,2.45
2023-05-10T02:51:45.941Z,3.00
2023-05-10T02:56:55.601Z,3.00
2023-05-10T03:01:59.898Z,2.42
2023-05-10T03:07:06.258Z,3.00
2023-05-10T03:12:16.604Z,3.38
2023-05-10T03:17:27.988Z,3.97
2023-05-10T03:22:38.600Z,4.07
2023-05-10T03:27:46.068Z,3.15
2023-05-10T03:32:50.508Z,2.95
2023-05-10T03:37:57.264Z,4.28
2023-05-10T03:43:04.899Z,2.30
2023-05-10T03:48:10.072Z,4.13
2023-05-10T03:53:15.764Z,4.93
2023-05-10T03:58:20.021Z,4.97
2023-05-10T04:03:25.050Z,4.70
2023-05-10T04:08:33.818Z,4.82
2023-05-10T04:13:38.309Z,4.22
2023-05-10T04:18:42.554Z,3.65
2023-05-10T04:23:48.225Z,3.30
2023-05-10T04:28:52.349Z,3.40
2023-05-10T04:33:56.483Z,3.17
2023-05-10T04:39:04.183Z,5.07
2023-05-10T04:44:09.627Z,3.95
2023-05-10T04:49:13.862Z,3.45
2023-05-10T04:54:19.347Z,3.83
2023-05-10T04:59:23.867Z,4.15
2023-05-10T05:04:27.892Z,4.10
2023-05-10T05:09:34.127Z,4.10
2023-05-10T05:14:38.424Z,3.60
2023-05-10T05:19:42.468Z,2.47
2023-05-10T05:24:48.083Z,3.00
2023-05-10T05:29:52.186Z,3.63
2023-05-10T05:34:57.105Z,3.20
2023-05-10T05:40:03.786Z,3.88
2023-05-10T05:45:09.860Z,3.10
2023-05-10T05:50:14.057Z,4.20
2023-05-10T05:55:19.964Z,5.43
2023-05-10T06:00:24.377Z,4.28
2023-05-10T06:05:28.344Z,3.75
2023-05-10T06:10:33.678Z,4.07
2023-05-10T06:15:37.752Z,3.60
2023-05-10T06:20:44.169Z,4.13
2023-05-10T06:25:49.694Z,4.13
2023-05-10T06:30:53.949Z,3.13
2023-05-10T06:35:58.263Z,2.92
2023-05-10T06:41:04.494Z,3.47
2023-05-10T06:46:08.996Z,2.85
2023-05-10T06:51:15.593Z,3.65
2023-05-10T06:56:22.508Z,4.40
2023-05-10T07:01:26.925Z,4.13
2023-05-10T07:06:34.070Z,3.90
2023-05-10T07:11:40.018Z,3.00
2023-05-10T07:16:46.090Z,2.92
2023-05-10T07:21:51.938Z,3.33
2023-05-10T07:26:57.439Z,3.00
2023-05-10T07:32:02.394Z,2.65
2023-05-10T07:37:07.315Z,2.55
2023-05-10T07:42:12.686Z,2.90
2023-05-10T07:47:16.998Z,3.20
2023-05-10T07:52:22.633Z,4.40
2023-05-10T07:57:28.493Z,2.53
2023-05-10T08:02:32.641Z,3.42
2023-05-10T08:07:37.331Z,2.47
2023-05-10T08:12:43.042Z,2.60
2023-05-10T08:17:47.732Z,2.22
2023-05-10T08:22:52.420Z,2.90
2023-05-10T08:27:57.866Z,3.10
2023-05-10T08:33:01.996Z,3.15
2023-05-10T08:38:06.147Z,3.38
2023-05-10T08:43:15.671Z,2.22
2023-05-10T08:48:22.769Z,2.20
2023-05-10T08:53:28.854Z,5.28
2023-05-10T08:58:34.384Z,3.90
2023-05-10T09:03:41.249Z,2.63
2023-05-10T09:08:46.581Z,3.85
2023-05-10T09:13:54.686Z,3.55
2023-05-10T09:18:59.476Z,3.58
2023-05-10T09:24:07.424Z,4.38
2023-05-10T09:29:15.209Z,3.47
2023-05-10T09:34:22.171Z,3.40
2023-05-10T09:39:34.263Z,3.10
2023-05-10T09:44:42.397Z,3.58
2023-05-10T09:49:46.705Z,3.38
2023-05-10T09:54:55.729Z,3.42
2023-05-10T10:00:06.161Z,2.58
2023-05-10T10:05:36.392Z,2.53
2023-05-10T10:10:42.535Z,2.70
2023-05-10T10:15:52.366Z,2.70
2023-05-10T10:20:57.088Z,3.03
2023-05-10T10:26:02.001Z,3.50
2023-05-10T10:31:20.240Z,2.60
2023-05-10T10:36:24.403Z,3.00
2023-05-10T10:41:33.317Z,2.65
2023-05-10T10:47:02.601Z,3.30
2023-05-10T10:52:17.845Z,2.93
2023-05-10T10:57:23.788Z,3.10
2023-05-10T11:02:50.064Z,2.67
2023-05-10T11:07:55.968Z,3.00
2023-05-10T11:13:03.134Z,3.25
2023-05-10T11:18:22.295Z,2.92
2023-05-10T11:23:31.676Z,2.88
2023-05-10T11:33:47.019Z,3.03
2023-05-10T11:38:51.461Z,3.72
2023-05-10T11:43:57.930Z,3.40
2023-05-10T11:49:05.760Z,3.72
2023-05-10T11:54:11.628Z,4.00
2023-05-10T11:59:16.952Z,3.28
2023-05-10T12:04:22.920Z,2.67
2023-05-10T12:09:42.527Z,3.22
2023-05-10T12:14:53.454Z,3.40
2023-05-10T12:20:16.340Z,2.70
2023-05-10T12:25:21.238Z,3.22
2023-05-10T12:30:26.280Z,2.78
2023-05-10T12:35:35.500Z,3.10
2023-05-10T12:40:40.057Z,2.90
2023-05-10T12:45:49.069Z,3.97
2023-05-10T12:50:54.540Z,2.85
2023-05-10T12:55:59.313Z,2.63
2023-05-10T13:01:04.192Z,3.20
2023-05-10T13:06:11.250Z,2.72
2023-05-10T13:11:17.752Z,3.05
2023-05-10T13:16:23.457Z,2.83
2023-05-10T13:21:30.246Z,2.80
2023-05-10T13:26:34.686Z,2.65
2023-05-10T13:31:38.874Z,2.63
2023-05-10T13:36:44.380Z,2.75
2023-05-10T13:41:53.852Z,2.75
2023-05-10T13:46:58.866Z,5.63
2023-05-10T13:52:08.217Z,3.17
2023-05-10T14:02:18.139Z,2.83
2023-05-10T14:07:23.893Z,4.88
2023-05-10T14:12:28.357Z,2.90
2023-05-10T14:17:32.988Z,3.90
2023-05-10T14:22:38.477Z,3.05
2023-05-10T14:27:42.730Z,3.70
2023-05-10T14:32:46.933Z,3.30
2023-05-10T14:37:52.552Z,2.83
2023-05-10T14:42:58.756Z,2.45
2023-05-10T14:48:05.927Z,2.95
2023-05-10T14:53:11.876Z,3.05
2023-05-10T14:58:17.009Z,3.13
2023-05-10T15:03:22.829Z,5.00
2023-05-10T15:08:29.821Z,2.80
2023-05-10T15:13:34.120Z,3.08
2023-05-10T15:18:38.295Z,3.38
2023-05-10T15:23:44.774Z,3.20
2023-05-10T15:28:49.126Z,3.58
2023-05-10T15:33:53.514Z,3.72
2023-05-10T15:38:58.944Z,3.92
2023-05-10T15:44:03.649Z,4.68
2023-05-10T15:49:08.193Z,3.50
2023-05-10T15:54:16.360Z,3.95
2023-05-10T15:59:22.666Z,3.75
2023-05-10T16:04:27.504Z,3.70
2023-05-10T16:09:34.238Z,4.20
2023-05-10T16:14:38.468Z,3.47
2023-05-10T16:19:42.707Z,3.55
2023-05-10T16:24:49.953Z,2.95
2023-05-10T16:29:54.253Z,3.45
2023-05-10T16:35:02.985Z,3.67
2023-05-10T16:40:10.546Z,4.15
2023-05-10T16:45:16.461Z,4.15
2023-05-10T16:50:21.386Z,6.28
2023-05-10T16:55:28.752Z,7.57
2023-05-10T17:00:35.168Z,6.18
2023-05-10T17:05:39.298Z,3.95
2023-05-10T17:10:45.004Z,3.38
2023-05-10T17:15:49.356Z,3.83
2023-05-10T17:20:55.400Z,5.43
2023-05-10T17:26:01.782Z,4.28
2023-05-10T17:31:07.160Z,4.35
2023-05-10T17:36:11.651Z,4.13
2023-05-10T17:41:20.287Z,3.47
2023-05-10T17:46:24.875Z,4.38
2023-05-10T17:51:30.488Z,3.90
2023-05-10T17:56:36.013Z,4.70
2023-05-10T18:01:41.098Z,4.60
2023-05-10T18:06:45.157Z,5.05
2023-05-10T18:11:51.218Z,3.58
2023-05-10T18:16:57.332Z,4.05
2023-05-10T18:22:01.555Z,3.22
2023-05-10T18:27:07.823Z,4.38
2023-05-10T18:32:12.225Z,4.35
2023-05-10T18:37:17.389Z,4.35
2023-05-10T18:42:23.022Z,5.60
2023-05-10T18:47:28.014Z,4.68
2023-05-10T18:52:32.741Z,4.80
2023-05-10T18:57:43.348Z,6.32
2023-05-10T19:02:48.100Z,5.45
2023-05-10T19:07:52.194Z,4.82
2023-05-10T19:13:00.023Z,4.50
2023-05-10T19:18:05.782Z,5.07
2023-05-10T19:23:10.911Z,6.03
2023-05-10T19:28:18.717Z,5.18
2023-05-10T19:33:23.640Z,4.65
2023-05-10T19:38:28.175Z,4.22
2023-05-10T19:43:36.923Z,7.93
2023-05-10T19:48:42.240Z,7.33
2023-05-10T19:53:46.672Z,4.38
2023-05-10T19:58:52.405Z,4.07
2023-05-10T20:03:58.508Z,5.75
2023-05-10T20:09:03.040Z,4.63
2023-05-10T20:14:12.973Z,3.50
2023-05-10T20:19:17.534Z,4.03
2023-05-10T20:24:22.160Z,3.97
2023-05-10T20:29:28.390Z,3.95
2023-05-10T20:34:32.799Z,4.10
2023-05-10T20:39:37.177Z,3.70
2023-05-10T20:44:44.480Z,3.65
2023-05-10T20:49:49.146Z,2.85
2023-05-10T20:54:53.518Z,3.03
2023-05-10T21:00:00.161Z,3.38
2023-05-10T21:05:05.985Z,3.33
2023-05-10T21:10:13.812Z,3.17
2023-05-10T21:15:22.711Z,6.80
2023-05-10T21:20:27.201Z,4.18
2023-05-10T21:25:31.537Z,3.97
2023-05-10T21:30:37.240Z,3.88
2023-05-10T21:35:43.078Z,3.88
2023-05-10T21:40:47.886Z,3.63
2023-05-10T21:45:53.753Z,3.85
2023-05-10T21:50:57.952Z,3.28
2023-05-10T21:56:02.106Z,3.60
2023-05-10T22:01:07.676Z,4.78
2023-05-10T22:06:12.047Z,3.85
2023-05-10T22:11:16.282Z,3.60
2023-05-10T22:16:22.726Z,3.05
2023-05-10T22:21:26.811Z,2.85
2023-05-10T22:26:31.201Z,2.83
2023-05-10T22:31:38.432Z,3.55
2023-05-10T22:36:42.784Z,3.00
2023-05-10T22:41:48.432Z,3.00
2023-05-10T22:46:54.016Z,3.70
2023-05-10T22:51:58.311Z,3.88
2023-05-10T22:57:02.435Z,3.65
2023-05-10T23:02:09.383Z,4.22
2023-05-10T23:07:13.841Z,4.45
2023-05-10T23:12:19.338Z,4.47
2023-05-10T23:17:25.340Z,3.90
2023-05-10T23:22:29.844Z,4.10
2023-05-10T23:27:34.185Z,3.60
2023-05-10T23:32:39.805Z,4.32
2023-05-10T23:37:43.908Z,3.85
2023-05-10T23:42:48.078Z,3.65
2023-05-10T23:47:53.592Z,3.70
2023-05-10T23:52:57.962Z,4.47
2023-05-10T23:58:02.151Z,3.85
